Fairport Harbor, Ohio
Current Conditions -  °F | °C
As of 10:45 AM on Saturday 20 Dec 2014 (Local Time) from KCGF Reporting Station
Overcast Overcast  
Wind Chill: 25°   Ceiling: 2400
Heat Index: 32°   Visibility: 10mi
Dew Point: 25°   Wind: 8mph
Humidity: 75%   Direction: 170°S
Pressure: 30.3"   Gusts: NA
Location:  41.6851°N, 81.2077°W
Report Text: KCGF 201545Z 17007KT 10SM SCT012 OVC024 00/M04 A3030
Loading
Personal Weather Stations






























Interactive Weather Map New forecast layout! Learn more

10-Day Weather Forecast

Advertisements
Track Severe Weather on mobile